sensor_id;sensor_type;location;lat;lon;timestamp;pressure;altitude;pressure_sealevel;temperature;humidity
56825;BME280;42705;50.326;18.772;2023-06-14T00:00:30;98412.33;;;12.25;60.23
56825;BME280;42705;50.326;18.772;2023-06-14T00:06:12;98412.05;;;12.24;60.36
56825;BME280;42705;50.326;18.772;2023-06-14T00:11:33;98412.05;;;12.22;60.61
56825;BME280;42705;50.326;18.772;2023-06-14T00:16:54;98414.27;;;12.21;60.79
56825;BME280;42705;50.326;18.772;2023-06-14T00:22:19;98415.49;;;12.17;60.78
56825;BME280;42705;50.326;18.772;2023-06-14T00:27:40;98412.81;;;12.20;60.95
56825;BME280;42705;50.326;18.772;2023-06-14T00:33:01;98410.48;;;12.22;61.39
56825;BME280;42705;50.326;18.772;2023-06-14T00:38:23;98408.05;;;12.24;61.43
56825;BME280;42705;50.326;18.772;2023-06-14T00:43:44;98400.41;;;12.21;61.35
56825;BME280;42705;50.326;18.772;2023-06-14T00:49:05;98400.36;;;12.18;61.50
56825;BME280;42705;50.326;18.772;2023-06-14T00:54:27;98395.85;;;12.21;61.59
56825;BME280;42705;50.326;18.772;2023-06-14T00:59:48;98393.92;;;12.23;61.71
56825;BME280;42705;50.326;18.772;2023-06-14T01:05:10;98392.02;;;12.21;61.75
56825;BME280;42705;50.326;18.772;2023-06-14T01:16:07;98386.16;;;12.07;61.89
56825;BME280;42705;50.326;18.772;2023-06-14T01:21:29;98390.08;;;12.05;61.68
56825;BME280;42705;50.326;18.772;2023-06-14T01:26:53;98394.58;;;12.04;61.83
56825;BME280;42705;50.326;18.772;2023-06-14T01:32:17;98397.31;;;11.98;62.02
56825;BME280;42705;50.326;18.772;2023-06-14T01:37:40;98397.84;;;11.93;61.87
56825;BME280;42705;50.326;18.772;2023-06-14T01:43:03;98399.23;;;11.86;62.01
56825;BME280;42705;50.326;18.772;2023-06-14T01:48:25;98394.11;;;11.86;62.14
56825;BME280;42705;50.326;18.772;2023-06-14T01:53:46;98391.11;;;11.88;62.13
56825;BME280;42705;50.326;18.772;2023-06-14T01:59:09;98391.19;;;11.86;62.38
56825;BME280;42705;50.326;18.772;2023-06-14T02:04:30;98391.27;;;11.81;62.28
56825;BME280;42705;50.326;18.772;2023-06-14T02:09:51;98389.65;;;11.76;62.39
56825;BME280;42705;50.326;18.772;2023-06-14T02:15:13;98381.83;;;11.74;62.65
56825;BME280;42705;50.326;18.772;2023-06-14T02:20:40;98379.70;;;11.74;62.64
56825;BME280;42705;50.326;18.772;2023-06-14T02:26:01;98383.56;;;11.72;62.79
56825;BME280;42705;50.326;18.772;2023-06-14T02:31:24;98388.91;;;11.68;62.90
56825;BME280;42705;50.326;18.772;2023-06-14T02:36:45;98394.49;;;11.66;63.25
56825;BME280;42705;50.326;18.772;2023-06-14T02:42:08;98394.25;;;11.67;63.11
56825;BME280;42705;50.326;18.772;2023-06-14T02:47:29;98395.46;;;11.70;63.33
56825;BME280;42705;50.326;18.772;2023-06-14T02:52:51;98385.73;;;11.69;63.10
56825;BME280;42705;50.326;18.772;2023-06-14T02:58:14;98384.06;;;11.69;63.18
56825;BME280;42705;50.326;18.772;2023-06-14T03:03:35;98387.38;;;11.69;63.50
56825;BME280;42705;50.326;18.772;2023-06-14T03:08:57;98387.31;;;11.68;63.32
56825;BME280;42705;50.326;18.772;2023-06-14T03:14:23;98379.98;;;11.70;63.87
56825;BME280;42705;50.326;18.772;2023-06-14T03:19:44;98384.45;;;11.74;63.58
56825;BME280;42705;50.326;18.772;2023-06-14T03:25:08;98379.88;;;11.82;64.07
56825;BME280;42705;50.326;18.772;2023-06-14T03:30:31;98381.77;;;11.91;63.90
56825;BME280;42705;50.326;18.772;2023-06-14T03:35:54;98382.35;;;12.01;64.02
56825;BME280;42705;50.326;18.772;2023-06-14T03:41:17;98388.33;;;12.12;64.08
56825;BME280;42705;50.326;18.772;2023-06-14T03:46:38;98394.27;;;12.27;63.94
56825;BME280;42705;50.326;18.772;2023-06-14T03:52:00;98393.79;;;12.39;63.99
56825;BME280;42705;50.326;18.772;2023-06-14T03:57:23;98390.45;;;12.51;63.92
56825;BME280;42705;50.326;18.772;2023-06-14T04:02:45;98393.73;;;12.66;63.91
56825;BME280;42705;50.326;18.772;2023-06-14T04:08:06;98390.45;;;12.77;64.00
56825;BME280;42705;50.326;18.772;2023-06-14T04:13:30;98396.23;;;12.93;64.19
56825;BME280;42705;50.326;18.772;2023-06-14T04:18:51;98393.79;;;13.07;64.29
56825;BME280;42705;50.326;18.772;2023-06-14T04:24:13;98394.91;;;13.15;64.26
56825;BME280;42705;50.326;18.772;2023-06-14T04:29:38;98392.48;;;13.22;64.44
56825;BME280;42705;50.326;18.772;2023-06-14T04:35:07;98400.10;;;13.29;64.69
56825;BME280;42705;50.326;18.772;2023-06-14T04:40:30;98393.34;;;13.41;64.63
56825;BME280;42705;50.326;18.772;2023-06-14T04:45:52;98385.30;;;13.54;64.49
56825;BME280;42705;50.326;18.772;2023-06-14T04:51:16;98387.80;;;13.67;64.34
56825;BME280;42705;50.326;18.772;2023-06-14T04:56:38;98396.42;;;13.79;64.35
56825;BME280;42705;50.326;18.772;2023-06-14T05:02:00;98398.27;;;13.88;64.56
56825;BME280;42705;50.326;18.772;2023-06-14T05:07:21;98399.55;;;13.91;64.58
56825;BME280;42705;50.326;18.772;2023-06-14T05:12:46;98402.05;;;13.89;64.65
56825;BME280;42705;50.326;18.772;2023-06-14T05:18:09;98397.19;;;13.95;64.74
56825;BME280;42705;50.326;18.772;2023-06-14T05:23:30;98403.54;;;13.97;64.84
56825;BME280;42705;50.326;18.772;2023-06-14T05:28:52;98408.42;;;14.04;65.06
56825;BME280;42705;50.326;18.772;2023-06-14T05:34:13;98410.98;;;14.09;65.07
56825;BME280;42705;50.326;18.772;2023-06-14T05:39:34;98418.96;;;14.19;65.03
56825;BME280;42705;50.326;18.772;2023-06-14T05:44:55;98425.48;;;14.28;65.14
56825;BME280;42705;50.326;18.772;2023-06-14T05:50:17;98422.48;;;14.32;65.08
56825;BME280;42705;50.326;18.772;2023-06-14T05:55:38;98429.02;;;14.30;65.13
56825;BME280;42705;50.326;18.772;2023-06-14T06:00:59;98426.73;;;14.34;65.25
56825;BME280;42705;50.326;18.772;2023-06-14T06:06:20;98427.48;;;14.44;65.29
56825;BME280;42705;50.326;18.772;2023-06-14T06:11:41;98425.52;;;14.56;65.24
56825;BME280;42705;50.326;18.772;2023-06-14T06:17:03;98432.42;;;14.65;65.14
56825;BME280;42705;50.326;18.772;2023-06-14T06:22:24;98425.53;;;14.82;65.05
56825;BME280;42705;50.326;18.772;2023-06-14T06:27:45;98430.30;;;14.98;64.72
56825;BME280;42705;50.326;18.772;2023-06-14T06:33:06;98433.73;;;15.11;64.50
56825;BME280;42705;50.326;18.772;2023-06-14T06:38:27;98443.65;;;15.16;64.42
56825;BME280;42705;50.326;18.772;2023-06-14T06:43:49;98450.01;;;15.16;64.28
56825;BME280;42705;50.326;18.772;2023-06-14T06:49:12;98450.50;;;15.14;64.15
56825;BME280;42705;50.326;18.772;2023-06-14T06:54:33;98455.26;;;15.15;64.11
56825;BME280;42705;50.326;18.772;2023-06-14T06:59:54;98453.45;;;15.21;64.19
56825;BME280;42705;50.326;18.772;2023-06-14T07:05:16;98457.45;;;15.30;63.80
56825;BME280;42705;50.326;18.772;2023-06-14T07:10:37;98463.79;;;15.36;63.69
56825;BME280;42705;50.326;18.772;2023-06-14T07:15:59;98456.27;;;15.63;63.67
56825;BME280;42705;50.326;18.772;2023-06-14T07:21:21;98461.24;;;15.97;63.24
56825;BME280;42705;50.326;18.772;2023-06-14T07:26:42;98464.41;;;16.10;63.05
56825;BME280;42705;50.326;18.772;2023-06-14T07:32:04;98465.50;;;16.08;62.66
56825;BME280;42705;50.326;18.772;2023-06-14T07:37:26;98467.88;;;16.04;62.40
56825;BME280;42705;50.326;18.772;2023-06-14T07:42:47;98469.93;;;16.08;62.48
56825;BME280;42705;50.326;18.772;2023-06-14T07:48:09;98475.29;;;16.01;62.18
56825;BME280;42705;50.326;18.772;2023-06-14T07:53:30;98478.45;;;15.92;62.19
56825;BME280;42705;50.326;18.772;2023-06-14T07:58:52;98484.44;;;15.90;62.17
56825;BME280;42705;50.326;18.772;2023-06-14T08:04:14;98486.08;;;15.98;62.23
56825;BME280;42705;50.326;18.772;2023-06-14T08:09:36;98486.07;;;16.10;62.30
56825;BME280;42705;50.326;18.772;2023-06-14T08:14:59;98487.68;;;16.21;61.98
56825;BME280;42705;50.326;18.772;2023-06-14T08:20:20;98482.70;;;16.22;62.11
56825;BME280;42705;50.326;18.772;2023-06-14T08:25:41;98482.06;;;16.17;61.73
56825;BME280;42705;50.326;18.772;2023-06-14T08:31:02;98483.59;;;16.12;61.80
56825;BME280;42705;50.326;18.772;2023-06-14T08:36:24;98489.75;;;16.09;61.90
56825;BME280;42705;50.326;18.772;2023-06-14T08:41:46;98492.94;;;16.12;61.71
56825;BME280;42705;50.326;18.772;2023-06-14T08:47:10;98500.17;;;16.23;61.80
56825;BME280;42705;50.326;18.772;2023-06-14T08:52:36;98502.02;;;16.33;61.60
56825;BME280;42705;50.326;18.772;2023-06-14T08:58:01;98506.65;;;16.45;61.66
56825;BME280;42705;50.326;18.772;2023-06-14T09:03:24;98511.20;;;16.73;61.80
56825;BME280;42705;50.326;18.772;2023-06-14T09:08:50;98519.23;;;17.09;61.89
56825;BME280;42705;50.326;18.772;2023-06-14T09:14:13;98526.41;;;17.29;61.98
56825;BME280;42705;50.326;18.772;2023-06-14T09:19:34;98525.71;;;17.41;62.05
56825;BME280;42705;50.326;18.772;2023-06-14T09:24:56;98522.76;;;17.45;61.53
56825;BME280;42705;50.326;18.772;2023-06-14T09:30:20;98524.77;;;17.40;61.49
56825;BME280;42705;50.326;18.772;2023-06-14T09:35:41;98520.94;;;17.17;61.60
56825;BME280;42705;50.326;18.772;2023-06-14T09:41:03;98517.27;;;16.98;61.76
56825;BME280;42705;50.326;18.772;2023-06-14T09:46:25;98520.02;;;16.92;61.81
56825;BME280;42705;50.326;18.772;2023-06-14T09:51:50;98517.45;;;17.01;61.87
56825;BME280;42705;50.326;18.772;2023-06-14T09:57:21;98518.23;;;17.02;61.91
56825;BME280;42705;50.326;18.772;2023-06-14T10:02:48;98520.67;;;16.86;62.00
56825;BME280;42705;50.326;18.772;2023-06-14T10:08:18;98524.27;;;16.79;62.23
56825;BME280;42705;50.326;18.772;2023-06-14T10:13:40;98526.60;;;16.89;62.28
56825;BME280;42705;50.326;18.772;2023-06-14T10:19:19;98522.69;;;16.94;62.14
56825;BME280;42705;50.326;18.772;2023-06-14T10:24:42;98526.63;;;17.05;62.04
56825;BME280;42705;50.326;18.772;2023-06-14T10:30:07;98527.36;;;17.24;61.69
56825;BME280;42705;50.326;18.772;2023-06-14T10:35:28;98532.21;;;17.40;61.55
56825;BME280;42705;50.326;18.772;2023-06-14T10:40:55;98527.21;;;17.40;61.41
56825;BME280;42705;50.326;18.772;2023-06-14T10:46:18;98526.28;;;17.26;61.23
56825;BME280;42705;50.326;18.772;2023-06-14T10:51:51;98524.09;;;17.00;61.55
56825;BME280;42705;50.326;18.772;2023-06-14T10:57:12;98522.06;;;16.78;62.24
56825;BME280;42705;50.326;18.772;2023-06-14T11:14:02;98515.71;;;16.53;63.36
56825;BME280;42705;50.326;18.772;2023-06-14T11:19:23;98508.55;;;16.88;63.08
56825;BME280;42705;50.326;18.772;2023-06-14T11:24:45;98504.77;;;17.26;62.79
56825;BME280;42705;50.326;18.772;2023-06-14T11:30:07;98499.70;;;17.61;62.51
56825;BME280;42705;50.326;18.772;2023-06-14T11:35:30;98504.34;;;18.01;62.08
56825;BME280;42705;50.326;18.772;2023-06-14T11:40:51;98501.90;;;18.33;61.54
56825;BME280;42705;50.326;18.772;2023-06-14T11:46:14;98501.22;;;18.56;61.20
56825;BME280;42705;50.326;18.772;2023-06-14T11:51:37;98498.34;;;18.73;60.90
56825;BME280;42705;50.326;18.772;2023-06-14T11:56:59;98497.16;;;18.91;60.23
56825;BME280;42705;50.326;18.772;2023-06-14T12:02:21;98494.14;;;19.03;59.55
56825;BME280;42705;50.326;18.772;2023-06-14T12:07:43;98492.64;;;19.32;59.26
56825;BME280;42705;50.326;18.772;2023-06-14T12:13:06;98486.54;;;19.45;58.76
56825;BME280;42705;50.326;18.772;2023-06-14T12:18:34;98489.97;;;19.21;58.33
56825;BME280;42705;50.326;18.772;2023-06-14T12:23:56;98485.71;;;18.82;58.49
56825;BME280;42705;50.326;18.772;2023-06-14T12:29:19;98487.13;;;18.68;58.51
56825;BME280;42705;50.326;18.772;2023-06-14T12:34:40;98490.07;;;18.41;58.56
56825;BME280;42705;50.326;18.772;2023-06-14T12:40:02;98480.82;;;18.29;58.70
56825;BME280;42705;50.326;18.772;2023-06-14T12:45:27;98476.46;;;18.25;58.55
56825;BME280;42705;50.326;18.772;2023-06-14T12:50:49;98472.98;;;18.15;58.55
56825;BME280;42705;50.326;18.772;2023-06-14T12:56:10;98470.65;;;18.03;58.62
56825;BME280;42705;50.326;18.772;2023-06-14T13:01:32;98463.80;;;17.94;58.63
56825;BME280;42705;50.326;18.772;2023-06-14T13:06:53;98454.34;;;17.85;58.67
56825;BME280;42705;50.326;18.772;2023-06-14T13:12:15;98456.09;;;17.86;58.49
56825;BME280;42705;50.326;18.772;2023-06-14T13:17:36;98453.46;;;17.99;58.51
56825;BME280;42705;50.326;18.772;2023-06-14T13:22:59;98450.83;;;18.47;58.37
56825;BME280;42705;50.326;18.772;2023-06-14T13:28:21;98457.79;;;18.98;58.02
56825;BME280;42705;50.326;18.772;2023-06-14T13:33:42;98454.76;;;19.36;57.12
56825;BME280;42705;50.326;18.772;2023-06-14T13:39:03;98454.45;;;19.61;56.70
56825;BME280;42705;50.326;18.772;2023-06-14T13:44:24;98457.64;;;19.73;56.29
56825;BME280;42705;50.326;18.772;2023-06-14T13:49:45;98450.04;;;19.76;56.19
56825;BME280;42705;50.326;18.772;2023-06-14T13:55:08;98439.43;;;19.86;55.98
56825;BME280;42705;50.326;18.772;2023-06-14T14:00:30;98441.98;;;19.85;55.70
56825;BME280;42705;50.326;18.772;2023-06-14T14:05:52;98437.78;;;19.79;55.20
56825;BME280;42705;50.326;18.772;2023-06-14T14:11:14;98441.63;;;19.75;54.84
56825;BME280;42705;50.326;18.772;2023-06-14T14:16:37;98442.69;;;19.77;54.31
56825;BME280;42705;50.326;18.772;2023-06-14T14:21:59;98441.10;;;19.82;53.73
56825;BME280;42705;50.326;18.772;2023-06-14T14:27:20;98443.17;;;19.63;53.12
56825;BME280;42705;50.326;18.772;2023-06-14T14:32:41;98440.12;;;19.47;53.03
56825;BME280;42705;50.326;18.772;2023-06-14T14:38:03;98443.59;;;19.53;53.02
56825;BME280;42705;50.326;18.772;2023-06-14T14:43:26;98436.75;;;20.31;52.48
56825;BME280;42705;50.326;18.772;2023-06-14T14:48:48;98438.45;;;21.02;51.45
56825;BME280;42705;50.326;18.772;2023-06-14T14:54:09;98436.79;;;21.70;50.47
56825;BME280;42705;50.326;18.772;2023-06-14T14:59:30;98431.65;;;22.28;49.98
56825;BME280;42705;50.326;18.772;2023-06-14T15:04:51;98428.58;;;22.60;49.23
56825;BME280;42705;50.326;18.772;2023-06-14T15:10:12;98427.34;;;22.74;48.48
56825;BME280;42705;50.326;18.772;2023-06-14T15:15:35;98420.77;;;22.86;48.00
56825;BME280;42705;50.326;18.772;2023-06-14T15:20:56;98418.27;;;22.83;47.17
56825;BME280;42705;50.326;18.772;2023-06-14T15:26:17;98416.57;;;23.29;46.19
56825;BME280;42705;50.326;18.772;2023-06-14T15:31:38;98416.42;;;24.66;45.10
56825;BME280;42705;50.326;18.772;2023-06-14T15:37:00;98414.79;;;24.93;44.26
56825;BME280;42705;50.326;18.772;2023-06-14T15:42:23;98405.23;;;25.81;42.96
56825;BME280;42705;50.326;18.772;2023-06-14T15:47:44;98401.66;;;27.24;41.54
56825;BME280;42705;50.326;18.772;2023-06-14T15:53:05;98402.93;;;28.35;40.23
56825;BME280;42705;50.326;18.772;2023-06-14T15:58:27;98405.22;;;29.18;38.66
56825;BME280;42705;50.326;18.772;2023-06-14T16:03:48;98407.19;;;29.81;37.62
56825;BME280;42705;50.326;18.772;2023-06-14T16:09:09;98408.98;;;29.88;36.71
56825;BME280;42705;50.326;18.772;2023-06-14T16:14:31;98406.60;;;29.43;35.86
56825;BME280;42705;50.326;18.772;2023-06-14T16:19:52;98403.94;;;28.69;35.89
56825;BME280;42705;50.326;18.772;2023-06-14T16:25:14;98405.73;;;28.02;36.06
56825;BME280;42705;50.326;18.772;2023-06-14T16:30:35;98406.29;;;27.59;36.50
56825;BME280;42705;50.326;18.772;2023-06-14T16:35:57;98409.08;;;26.83;36.80
56825;BME280;42705;50.326;18.772;2023-06-14T16:41:18;98418.38;;;25.70;37.68
56825;BME280;42705;50.326;18.772;2023-06-14T16:46:40;98427.92;;;24.73;38.52
56825;BME280;42705;50.326;18.772;2023-06-14T16:52:02;98439.92;;;23.68;39.63
56825;BME280;42705;50.326;18.772;2023-06-14T16:57:24;98447.52;;;22.64;41.09
56825;BME280;42705;50.326;18.772;2023-06-14T17:02:45;98451.24;;;21.64;42.54
56825;BME280;42705;50.326;18.772;2023-06-14T17:08:06;98464.10;;;20.88;43.89
56825;BME280;42705;50.326;18.772;2023-06-14T17:13:28;98468.92;;;20.29;44.71
56825;BME280;42705;50.326;18.772;2023-06-14T17:18:49;98469.58;;;19.73;45.69
56825;BME280;42705;50.326;18.772;2023-06-14T17:24:10;98479.96;;;19.20;46.64
56825;BME280;42705;50.326;18.772;2023-06-14T17:29:31;98481.89;;;18.73;47.66
56825;BME280;42705;50.326;18.772;2023-06-14T17:34:52;98486.85;;;18.28;48.59
56825;BME280;42705;50.326;18.772;2023-06-14T17:40:13;98493.36;;;17.92;49.72
56825;BME280;42705;50.326;18.772;2023-06-14T17:45:35;98501.88;;;17.69;50.86
56825;BME280;42705;50.326;18.772;2023-06-14T17:50:56;98499.98;;;17.55;51.65
56825;BME280;42705;50.326;18.772;2023-06-14T17:56:17;98509.89;;;17.42;52.39
56825;BME280;42705;50.326;18.772;2023-06-14T18:01:40;98512.30;;;17.26;53.25
56825;BME280;42705;50.326;18.772;2023-06-14T18:07:01;98509.39;;;17.09;53.97
56825;BME280;42705;50.326;18.772;2023-06-14T18:12:23;98513.86;;;16.94;54.54
56825;BME280;42705;50.326;18.772;2023-06-14T18:17:44;98517.64;;;16.77;55.06
56825;BME280;42705;50.326;18.772;2023-06-14T18:23:05;98522.55;;;16.63;55.82
56825;BME280;42705;50.326;18.772;2023-06-14T18:28:27;98522.27;;;16.56;56.34
56825;BME280;42705;50.326;18.772;2023-06-14T18:33:48;98523.11;;;16.49;56.94
56825;BME280;42705;50.326;18.772;2023-06-14T18:39:09;98520.20;;;16.42;57.25
56825;BME280;42705;50.326;18.772;2023-06-14T18:44:31;98519.52;;;16.34;57.94
56825;BME280;42705;50.326;18.772;2023-06-14T18:49:54;98520.71;;;16.19;58.08
56825;BME280;42705;50.326;18.772;2023-06-14T18:55:17;98520.88;;;16.06;58.32
56825;BME280;42705;50.326;18.772;2023-06-14T19:00:39;98528.02;;;15.93;58.81
56825;BME280;42705;50.326;18.772;2023-06-14T19:06:01;98534.63;;;15.90;59.48
56825;BME280;42705;50.326;18.772;2023-06-14T19:11:24;98538.72;;;15.85;60.08
56825;BME280;42705;50.326;18.772;2023-06-14T19:16:46;98537.34;;;15.77;60.37
56825;BME280;42705;50.326;18.772;2023-06-14T19:22:10;98537.55;;;15.68;61.05
56825;BME280;42705;50.326;18.772;2023-06-14T19:27:32;98540.98;;;15.61;61.26
56825;BME280;42705;50.326;18.772;2023-06-14T19:32:57;98541.85;;;15.51;61.56
56825;BME280;42705;50.326;18.772;2023-06-14T19:38:19;98549.78;;;15.43;62.07
56825;BME280;42705;50.326;18.772;2023-06-14T19:43:41;98547.30;;;15.35;62.34
56825;BME280;42705;50.326;18.772;2023-06-14T19:49:04;98555.07;;;15.29;62.74
56825;BME280;42705;50.326;18.772;2023-06-14T19:54:26;98557.95;;;15.25;63.19
56825;BME280;42705;50.326;18.772;2023-06-14T19:59:48;98558.41;;;15.21;63.37
56825;BME280;42705;50.326;18.772;2023-06-14T20:05:11;98559.19;;;15.12;63.39
56825;BME280;42705;50.326;18.772;2023-06-14T20:10:33;98559.73;;;15.05;63.44
56825;BME280;42705;50.326;18.772;2023-06-14T20:15:55;98557.55;;;15.01;63.69
56825;BME280;42705;50.326;18.772;2023-06-14T20:21:17;98558.38;;;14.98;63.87
56825;BME280;42705;50.326;18.772;2023-06-14T20:26:40;98555.27;;;14.92;64.00
56825;BME280;42705;50.326;18.772;2023-06-14T20:32:02;98559.27;;;14.83;64.05
56825;BME280;42705;50.326;18.772;2023-06-14T20:37:25;98554.69;;;14.78;64.37
56825;BME280;42705;50.326;18.772;2023-06-14T20:42:47;98553.83;;;14.78;64.40
56825;BME280;42705;50.326;18.772;2023-06-14T20:48:09;98557.31;;;14.76;64.55
56825;BME280;42705;50.326;18.772;2023-06-14T20:53:33;98559.68;;;14.72;64.51
56825;BME280;42705;50.326;18.772;2023-06-14T20:58:54;98558.01;;;14.71;64.44
56825;BME280;42705;50.326;18.772;2023-06-14T21:04:16;98562.05;;;14.71;64.73
56825;BME280;42705;50.326;18.772;2023-06-14T21:09:37;98560.25;;;14.65;64.75
56825;BME280;42705;50.326;18.772;2023-06-14T21:15:00;98569.36;;;14.57;64.85
56825;BME280;42705;50.326;18.772;2023-06-14T21:20:22;98568.17;;;14.50;64.81
56825;BME280;42705;50.326;18.772;2023-06-14T21:25:45;98565.64;;;14.45;65.13
56825;BME280;42705;50.326;18.772;2023-06-14T21:31:08;98561.80;;;14.39;65.22
56825;BME280;42705;50.326;18.772;2023-06-14T21:36:30;98566.23;;;14.31;65.45
56825;BME280;42705;50.326;18.772;2023-06-14T21:41:53;98568.27;;;14.30;65.60
56825;BME280;42705;50.326;18.772;2023-06-14T21:47:15;98567.11;;;14.29;65.80
56825;BME280;42705;50.326;18.772;2023-06-14T21:52:37;98569.45;;;14.24;65.77
56825;BME280;42705;50.326;18.772;2023-06-14T21:57:58;98573.66;;;14.17;65.73
56825;BME280;42705;50.326;18.772;2023-06-14T22:03:20;98574.73;;;14.19;66.01
56825;BME280;42705;50.326;18.772;2023-06-14T22:08:41;98575.96;;;14.22;66.06
56825;BME280;42705;50.326;18.772;2023-06-14T22:14:02;98573.58;;;14.20;66.02
56825;BME280;42705;50.326;18.772;2023-06-14T22:19:24;98574.27;;;14.10;66.22
56825;BME280;42705;50.326;18.772;2023-06-14T22:24:46;98570.96;;;14.06;66.37
56825;BME280;42705;50.326;18.772;2023-06-14T22:30:07;98569.27;;;14.07;66.74
56825;BME280;42705;50.326;18.772;2023-06-14T22:35:29;98566.88;;;14.01;66.63
56825;BME280;42705;50.326;18.772;2023-06-14T22:40:50;98560.70;;;14.01;66.82
56825;BME280;42705;50.326;18.772;2023-06-14T22:46:13;98566.22;;;13.97;66.97
56825;BME280;42705;50.326;18.772;2023-06-14T22:51:43;98561.31;;;13.94;67.22
56825;BME280;42705;50.326;18.772;2023-06-14T22:57:05;98562.02;;;13.90;67.25
56825;BME280;42705;50.326;18.772;2023-06-14T23:02:29;98558.14;;;13.91;67.44
56825;BME280;42705;50.326;18.772;2023-06-14T23:07:51;98555.29;;;13.91;67.54
56825;BME280;42705;50.326;18.772;2023-06-14T23:13:13;98548.47;;;13.84;67.56
56825;BME280;42705;50.326;18.772;2023-06-14T23:18:36;98548.51;;;13.85;67.79
56825;BME280;42705;50.326;18.772;2023-06-14T23:23:58;98549.52;;;13.91;67.84
56825;BME280;42705;50.326;18.772;2023-06-14T23:29:23;98550.48;;;13.92;67.85
56825;BME280;42705;50.326;18.772;2023-06-14T23:34:48;98549.88;;;13.89;67.71
56825;BME280;42705;50.326;18.772;2023-06-14T23:40:10;98552.43;;;13.86;67.83
56825;BME280;42705;50.326;18.772;2023-06-14T23:45:32;98549.91;;;13.88;68.13
56825;BME280;42705;50.326;18.772;2023-06-14T23:50:55;98545.39;;;13.86;68.17
56825;BME280;42705;50.326;18.772;2023-06-14T23:56:16;98546.08;;;13.85;68.26
